createdAt,value
2019-05-07T00:02:28.787Z,3.20
2019-05-07T00:05:02.630Z,3.80
2019-05-07T00:07:34.061Z,4.05
2019-05-07T00:10:06.347Z,4.40
2019-05-07T00:12:38.151Z,5.20
2019-05-07T00:15:09.861Z,5.33
2019-05-07T00:17:43.144Z,6.50
2019-05-07T00:20:16.724Z,11.25
2019-05-07T00:22:48.512Z,8.15
2019-05-07T00:25:20.208Z,10.07
2019-05-07T00:27:52.431Z,10.85
2019-05-07T00:30:24.322Z,9.65
2019-05-07T00:32:55.743Z,12.85
2019-05-07T00:35:29.139Z,9.68
2019-05-07T00:38:05.199Z,14.80
2019-05-07T00:40:53.638Z,19.85
2019-05-07T00:43:26.992Z,16.35
2019-05-07T00:46:02.258Z,15.68
2019-05-07T00:48:33.761Z,11.70
2019-05-07T00:51:25.274Z,10.55
2019-05-07T00:53:57.213Z,9.50
2019-05-07T00:56:28.947Z,10.85
2019-05-07T00:59:02.198Z,9.35
2019-05-07T01:01:34.775Z,9.25
2019-05-07T01:04:06.190Z,8.93
2019-05-07T01:06:38.008Z,8.30
2019-05-07T01:09:12.124Z,7.95
2019-05-07T01:11:43.178Z,7.92
2019-05-07T01:14:14.667Z,7.20
2019-05-07T01:16:46.521Z,6.33
2019-05-07T01:19:17.960Z,4.65
2019-05-07T01:21:52.331Z,5.42
2019-05-07T01:24:23.490Z,6.80
2019-05-07T01:26:55.197Z,6.25
2019-05-07T01:29:27.255Z,6.25
2019-05-07T01:32:03.797Z,5.78
2019-05-07T01:34:37.219Z,6.58
2019-05-07T01:37:08.806Z,6.47
2019-05-07T01:39:42.214Z,6.03
2019-05-07T01:42:13.939Z,6.65
2019-05-07T01:44:45.577Z,7.62
2019-05-07T01:47:17.398Z,7.05
2019-05-07T01:49:49.069Z,7.83
2019-05-07T01:52:22.638Z,7.30
2019-05-07T01:54:54.257Z,7.03
2019-05-07T01:57:27.244Z,7.42
2019-05-07T01:59:58.803Z,6.90
2019-05-07T02:02:38.639Z,6.75
2019-05-07T02:05:18.012Z,7.20
2019-05-07T02:07:52.151Z,6.78
2019-05-07T02:10:32.065Z,7.37
2019-05-07T02:13:03.807Z,6.70
2019-05-07T02:15:36.371Z,7.45
2019-05-07T02:18:07.999Z,6.43
2019-05-07T02:20:39.869Z,7.10
2019-05-07T02:23:12.804Z,6.47
2019-05-07T02:25:44.526Z,6.35
2019-05-07T02:28:16.274Z,6.50
2019-05-07T02:30:47.948Z,6.00
2019-05-07T02:33:22.770Z,6.33
2019-05-07T02:35:53.682Z,6.72
2019-05-07T02:38:27.313Z,7.08
2019-05-07T02:41:02.933Z,7.40
2019-05-07T02:43:34.406Z,7.50
2019-05-07T02:46:31.006Z,8.15
2019-05-07T02:48:58.873Z,8.05
2019-05-07T02:51:33.345Z,7.25
2019-05-07T02:54:24.133Z,8.28
2019-05-07T02:56:56.392Z,8.78
2019-05-07T02:59:27.979Z,9.08
2019-05-07T03:02:03.695Z,9.10
2019-05-07T03:04:33.908Z,9.38
2019-05-07T03:07:05.688Z,10.20
2019-05-07T03:09:37.392Z,9.55
2019-05-07T03:12:12.919Z,9.35
2019-05-07T03:14:43.919Z,9.28
2019-05-07T03:17:15.660Z,9.68
2019-05-07T03:19:48.953Z,9.30
2019-05-07T03:22:23.162Z,9.95
2019-05-07T03:24:55.446Z,9.80
2019-05-07T03:27:27.137Z,9.30
2019-05-07T03:30:09.439Z,9.20
2019-05-07T03:32:47.631Z,10.00
2019-05-07T03:35:27.385Z,10.40
2019-05-07T03:37:56.865Z,10.85
2019-05-07T03:40:32.675Z,10.98
2019-05-07T03:43:06.129Z,11.00
2019-05-07T03:45:54.136Z,10.82
2019-05-07T03:48:27.583Z,11.12
2019-05-07T03:50:59.241Z,9.90
2019-05-07T03:53:33.550Z,10.43
2019-05-07T03:56:04.749Z,10.98
2019-05-07T03:58:36.492Z,11.90
2019-05-07T04:01:08.210Z,10.43
2019-05-07T04:03:40.174Z,11.08
2019-05-07T04:06:12.739Z,11.28
2019-05-07T04:08:44.911Z,10.60
2019-05-07T04:11:16.475Z,11.15
2019-05-07T04:13:48.562Z,10.38
2019-05-07T04:18:53.093Z,10.60
2019-05-07T04:21:24.736Z,10.40
2019-05-07T04:24:14.729Z,10.63
2019-05-07T04:26:47.986Z,9.78
2019-05-07T04:29:22.891Z,9.53
2019-05-07T04:31:53.464Z,10.10
2019-05-07T04:34:44.554Z,11.45
2019-05-07T04:37:17.260Z,9.88
2019-05-07T04:39:54.947Z,10.45
2019-05-07T04:42:26.671Z,10.45
2019-05-07T04:44:58.398Z,10.55
2019-05-07T04:47:42.496Z,11.33
2019-05-07T04:50:09.114Z,10.78
2019-05-07T04:52:43.709Z,12.20
2019-05-07T04:55:14.862Z,11.45
2019-05-07T04:57:46.685Z,11.35
2019-05-07T05:00:18.615Z,13.45
2019-05-07T05:02:57.907Z,11.95
2019-05-07T05:05:32.738Z,12.63
2019-05-07T05:08:03.870Z,14.65
2019-05-07T05:10:35.619Z,12.65
2019-05-07T05:13:07.592Z,12.50
2019-05-07T05:15:39.117Z,12.65
2019-05-07T05:18:12.712Z,11.70
2019-05-07T05:20:46.170Z,12.03
2019-05-07T05:23:28.736Z,12.23
2019-05-07T05:26:01.957Z,11.60
2019-05-07T05:28:34.749Z,11.83
2019-05-07T05:31:07.502Z,12.13
2019-05-07T05:33:41.765Z,10.90
2019-05-07T05:36:12.865Z,11.53
2019-05-07T05:38:44.643Z,11.75
2019-05-07T05:41:16.333Z,12.47
2019-05-07T05:44:06.230Z,12.07
2019-05-07T05:46:37.987Z,11.20
2019-05-07T05:49:11.867Z,11.60
2019-05-07T05:51:45.273Z,11.18
2019-05-07T05:54:23.283Z,11.45
2019-05-07T05:57:08.720Z,10.63
2019-05-07T05:59:49.175Z,11.22
2019-05-07T06:02:33.211Z,10.65
2019-05-07T06:05:23.963Z,11.63
2019-05-07T06:07:57.204Z,11.12
2019-05-07T06:10:36.267Z,10.75
2019-05-07T06:13:18.533Z,10.50
2019-05-07T06:15:54.724Z,10.40
2019-05-07T06:18:27.790Z,10.53
2019-05-07T06:21:03.001Z,10.28
2019-05-07T06:23:36.240Z,9.28
2019-05-07T06:26:08.287Z,8.65
2019-05-07T06:28:42.544Z,9.48
2019-05-07T06:31:15.145Z,7.35
2019-05-07T06:33:46.828Z,6.87
2019-05-07T06:36:18.527Z,6.28
2019-05-07T06:38:53.136Z,5.83
2019-05-07T06:41:43.099Z,6.92
2019-05-07T06:44:19.153Z,4.78
2019-05-07T06:46:52.662Z,3.90
2019-05-07T06:49:24.553Z,3.60
2019-05-07T06:51:56.085Z,3.98
2019-05-07T06:54:28.807Z,4.00
2019-05-07T06:57:02.034Z,3.75
2019-05-07T06:59:35.263Z,3.72
2019-05-07T07:02:24.134Z,7.12
2019-05-07T07:05:06.714Z,4.78
2019-05-07T07:07:42.010Z,4.35
2019-05-07T07:10:14.954Z,3.40
2019-05-07T07:12:46.399Z,3.15
2019-05-07T07:15:18.249Z,4.03
2019-05-07T07:17:52.288Z,2.90
2019-05-07T07:20:23.766Z,2.40
2019-05-07T07:22:56.020Z,3.47
2019-05-07T07:25:27.568Z,2.80
2019-05-07T07:27:59.197Z,3.02
2019-05-07T07:30:38.237Z,2.90
2019-05-07T07:33:12.138Z,2.37
2019-05-07T07:35:44.074Z,2.90
2019-05-07T07:38:34.618Z,3.33
2019-05-07T07:41:13.111Z,3.00
2019-05-07T07:43:44.828Z,2.27
2019-05-07T07:46:16.798Z,2.60
2019-05-07T07:49:03.306Z,2.40
2019-05-07T07:51:37.256Z,2.95
2019-05-07T07:53:55.371Z,3.05
2019-05-07T07:56:49.055Z,2.15
2019-05-07T07:59:27.083Z,2.77
2019-05-07T08:02:03.044Z,2.25
2019-05-07T08:04:34.885Z,2.47
2019-05-07T08:07:06.648Z,2.67
2019-05-07T08:09:38.371Z,3.40
2019-05-07T08:12:12.723Z,3.45
2019-05-07T08:14:44.577Z,2.22
2019-05-07T08:17:16.124Z,2.58
2019-05-07T08:19:47.993Z,2.62
2019-05-07T08:22:19.445Z,2.58
2019-05-07T08:24:51.988Z,2.67
2019-05-07T08:27:23.665Z,5.15
2019-05-07T08:29:55.508Z,5.92
2019-05-07T08:32:43.791Z,5.30
2019-05-07T08:35:21.959Z,4.53
2019-05-07T08:37:53.711Z,3.52
2019-05-07T08:40:25.565Z,4.25
2019-05-07T08:45:46.699Z,3.20
2019-05-07T08:48:21.640Z,3.40
2019-05-07T08:50:53.220Z,2.70
2019-05-07T08:53:24.842Z,3.00
2019-05-07T08:58:27.493Z,3.12
2019-05-07T09:01:02.899Z,3.02
2019-05-07T09:03:43.159Z,2.70
2019-05-07T09:06:17.796Z,2.98
2019-05-07T09:08:49.470Z,4.97
2019-05-07T09:11:23.024Z,4.75
2019-05-07T09:13:54.661Z,3.22
2019-05-07T09:16:26.259Z,3.42
2019-05-07T09:18:58.113Z,3.10
2019-05-07T09:21:32.119Z,4.08
2019-05-07T09:24:04.529Z,3.35
2019-05-07T09:26:54.458Z,3.70
2019-05-07T09:29:27.784Z,4.42
2019-05-07T09:32:13.617Z,4.72
2019-05-07T09:34:46.767Z,4.60
2019-05-07T09:37:19.840Z,5.40
2019-05-07T09:39:51.941Z,3.47
2019-05-07T09:42:23.575Z,3.27
2019-05-07T09:44:55.401Z,3.80
2019-05-07T09:47:26.951Z,3.50
2019-05-07T09:50:04.543Z,3.30
2019-05-07T09:52:34.771Z,3.47
2019-05-07T09:55:16.636Z,3.00
2019-05-07T09:57:42.474Z,3.22
2019-05-07T10:00:15.272Z,3.50
2019-05-07T10:02:46.870Z,3.25
2019-05-07T10:05:18.735Z,4.50
2019-05-07T10:07:52.488Z,4.25
2019-05-07T10:10:24.017Z,3.55
2019-05-07T10:15:41.783Z,4.20
2019-05-07T10:18:15.449Z,3.10
2019-05-07T10:20:47.334Z,3.85
2019-05-07T10:23:23.137Z,2.62
2019-05-07T10:25:56.477Z,2.90
2019-05-07T10:28:28.088Z,2.92
2019-05-07T10:31:00.887Z,2.98
2019-05-07T10:33:32.731Z,3.22
2019-05-07T10:38:35.198Z,3.92
2019-05-07T10:41:07.486Z,3.20
2019-05-07T10:46:23.636Z,3.25
2019-05-07T10:48:59.499Z,3.40
2019-05-07T10:51:32.236Z,3.90
2019-05-07T10:54:03.969Z,3.70
2019-05-07T10:56:35.753Z,3.22
2019-05-07T10:59:07.574Z,4.33
2019-05-07T11:01:42.559Z,4.85
2019-05-07T11:04:14.099Z,4.12
2019-05-07T11:06:46.017Z,4.78
2019-05-07T11:09:17.555Z,4.33
2019-05-07T11:11:49.348Z,4.00
2019-05-07T11:17:04.195Z,6.50
2019-05-07T11:19:35.663Z,6.17
2019-05-07T11:22:07.359Z,5.87
2019-05-07T11:24:38.982Z,4.75
2019-05-07T11:27:11.967Z,4.65
2019-05-07T11:29:43.836Z,4.47
2019-05-07T11:32:15.680Z,4.28
2019-05-07T11:34:47.165Z,4.83
2019-05-07T11:37:18.951Z,5.15
2019-05-07T11:39:52.321Z,4.08
2019-05-07T11:42:25.381Z,8.83
2019-05-07T11:44:56.824Z,4.30
2019-05-07T11:47:32.953Z,5.00
2019-05-07T11:50:25.734Z,5.67
2019-05-07T11:52:58.933Z,4.22
2019-05-07T11:55:31.604Z,3.98
2019-05-07T11:58:03.299Z,4.90
2019-05-07T12:00:42.864Z,4.53
2019-05-07T12:03:14.463Z,4.95
2019-05-07T12:05:46.157Z,4.55
2019-05-07T12:08:17.786Z,4.85
2019-05-07T12:10:51.675Z,4.70
2019-05-07T12:13:22.658Z,5.22
2019-05-07T12:15:54.484Z,5.42
2019-05-07T12:18:26.251Z,4.33
2019-05-07T12:20:57.876Z,5.28
2019-05-07T12:23:29.751Z,5.35
2019-05-07T12:26:02.206Z,5.05
2019-05-07T12:28:34.298Z,5.17
2019-05-07T12:31:14.075Z,5.65
2019-05-07T12:33:53.483Z,4.05
2019-05-07T12:36:25.042Z,4.35
2019-05-07T12:38:57.030Z,3.85
2019-05-07T12:41:34.731Z,3.67
2019-05-07T12:44:08.078Z,4.05
2019-05-07T12:46:39.545Z,4.42
2019-05-07T12:49:12.033Z,4.30
2019-05-07T12:51:48.320Z,4.58
2019-05-07T12:54:30.328Z,4.22
2019-05-07T12:57:02.490Z,4.20
2019-05-07T12:59:34.387Z,4.12
2019-05-07T13:02:33.435Z,4.72
2019-05-07T13:04:52.144Z,5.00
2019-05-07T13:07:25.236Z,4.85
2019-05-07T13:09:57.118Z,6.20
2019-05-07T13:14:59.841Z,4.85
2019-05-07T13:17:33.813Z,6.03
2019-05-07T13:20:07.335Z,5.15
2019-05-07T13:22:38.686Z,5.40
2019-05-07T13:25:10.758Z,5.75
2019-05-07T13:27:42.933Z,6.15
2019-05-07T13:30:15.528Z,5.62
2019-05-07T13:32:48.302Z,6.15
2019-05-07T13:35:19.915Z,5.10
2019-05-07T13:38:04.722Z,4.87
2019-05-07T13:40:38.141Z,5.28
2019-05-07T13:43:23.254Z,6.15
2019-05-07T13:46:02.597Z,6.47
2019-05-07T13:48:36.889Z,5.83
2019-05-07T13:51:08.698Z,6.58
2019-05-07T13:53:40.187Z,7.22
2019-05-07T13:56:12.889Z,6.95
2019-05-07T13:58:44.681Z,6.08
2019-05-07T14:01:24.055Z,5.95
2019-05-07T14:03:55.987Z,5.90
2019-05-07T14:06:39.535Z,6.03
2019-05-07T14:09:14.507Z,5.83
2019-05-07T14:11:46.302Z,5.30
2019-05-07T14:14:17.949Z,5.42
2019-05-07T14:16:49.601Z,5.35
2019-05-07T14:19:22.520Z,5.92
2019-05-07T14:21:54.619Z,5.28
2019-05-07T14:24:26.283Z,5.17
2019-05-07T14:26:58.689Z,4.70
2019-05-07T14:29:32.062Z,3.72
2019-05-07T14:32:17.146Z,3.42
2019-05-07T14:35:09.185Z,3.85
2019-05-07T14:37:45.294Z,3.30
2019-05-07T14:40:17.177Z,5.42
2019-05-07T14:42:52.428Z,3.80
2019-05-07T14:45:23.926Z,3.65
2019-05-07T14:47:55.857Z,3.77
2019-05-07T14:50:27.546Z,3.70
2019-05-07T14:52:59.232Z,3.35
2019-05-07T14:55:34.810Z,3.00
2019-05-07T14:58:07.416Z,3.27
2019-05-07T15:00:39.028Z,3.12
2019-05-07T15:03:12.467Z,3.08
2019-05-07T15:05:44.687Z,3.50
2019-05-07T15:08:16.371Z,3.85
2019-05-07T15:10:49.485Z,4.28
2019-05-07T15:13:21.892Z,4.00
2019-05-07T15:18:25.919Z,4.37
2019-05-07T15:20:57.385Z,5.08
2019-05-07T15:23:30.904Z,5.83
2019-05-07T15:26:04.816Z,4.90
2019-05-07T15:28:38.031Z,4.10
2019-05-07T15:31:13.796Z,4.45
2019-05-07T15:33:45.538Z,8.30
2019-05-07T15:36:16.890Z,4.60
2019-05-07T15:38:48.994Z,4.17
2019-05-07T15:41:22.680Z,4.25
2019-05-07T15:43:53.804Z,4.50
2019-05-07T15:46:25.494Z,4.22
2019-05-07T15:48:57.089Z,4.50
2019-05-07T15:51:28.887Z,4.85
2019-05-07T15:54:03.497Z,6.77
2019-05-07T15:56:34.873Z,7.60
2019-05-07T15:59:06.656Z,5.37
2019-05-07T16:01:38.223Z,6.67
2019-05-07T16:04:19.915Z,11.10
2019-05-07T16:06:43.113Z,11.08
2019-05-07T16:09:15.117Z,10.05
2019-05-07T16:11:46.629Z,10.80
2019-05-07T16:14:22.521Z,11.93
2019-05-07T16:16:55.210Z,11.88
2019-05-07T16:19:28.716Z,14.18
2019-05-07T16:22:03.831Z,12.80
2019-05-07T16:24:36.131Z,11.55
2019-05-07T16:29:38.749Z,16.48
2019-05-07T16:32:11.128Z,14.05
2019-05-07T16:34:43.108Z,14.93
2019-05-07T16:37:14.949Z,14.47
2019-05-07T16:39:46.553Z,13.78
2019-05-07T16:42:21.675Z,16.12
2019-05-07T16:44:52.687Z,15.83
2019-05-07T16:47:26.760Z,13.20
2019-05-07T16:49:58.390Z,15.65
2019-05-07T16:52:34.745Z,15.45
2019-05-07T16:55:04.556Z,13.88
2019-05-07T16:57:42.388Z,14.25
2019-05-07T17:00:16.308Z,13.53
2019-05-07T17:02:51.641Z,12.37
2019-05-07T17:05:23.277Z,11.70
2019-05-07T17:07:59.677Z,9.83
2019-05-07T17:10:31.809Z,10.03
2019-05-07T17:13:03.677Z,10.93
2019-05-07T17:15:37.168Z,10.45
2019-05-07T17:18:08.886Z,11.08
2019-05-07T17:20:42.917Z,11.55
2019-05-07T17:23:14.504Z,11.63
2019-05-07T17:25:46.508Z,11.95
2019-05-07T17:28:19.433Z,14.73
2019-05-07T17:30:52.444Z,13.28
2019-05-07T17:33:24.962Z,13.72
2019-05-07T17:35:56.756Z,10.32
2019-05-07T17:38:28.671Z,9.70
2019-05-07T17:41:10.836Z,12.03
2019-05-07T17:43:35.546Z,10.63
2019-05-07T17:46:07.474Z,13.32
2019-05-07T17:48:39.512Z,12.93
2019-05-07T17:51:13.064Z,11.45
2019-05-07T17:53:56.807Z,10.80
2019-05-07T17:56:18.252Z,12.18
2019-05-07T17:58:52.097Z,109.60
2019-05-07T18:01:24.997Z,12.58
2019-05-07T18:03:56.861Z,12.28
2019-05-07T18:06:28.357Z,12.53
2019-05-07T18:09:02.754Z,11.55
2019-05-07T18:11:35.444Z,12.33
2019-05-07T18:14:07.731Z,12.73
2019-05-07T18:16:43.912Z,13.62
2019-05-07T18:19:15.640Z,14.00
2019-05-07T18:21:47.351Z,14.75
2019-05-07T18:24:19.348Z,13.88
2019-05-07T18:26:52.599Z,13.93
2019-05-07T18:29:24.594Z,14.75
2019-05-07T18:31:57.824Z,14.00
2019-05-07T18:34:29.286Z,15.65
2019-05-07T18:37:02.094Z,12.82
2019-05-07T18:39:34.059Z,11.68
2019-05-07T18:42:09.615Z,12.23
2019-05-07T18:44:41.767Z,12.95
2019-05-07T18:47:14.896Z,12.85
2019-05-07T18:49:46.575Z,11.80
2019-05-07T18:52:19.515Z,11.20
2019-05-07T18:54:52.041Z,11.90
2019-05-07T18:57:24.077Z,14.60
2019-05-07T18:59:55.598Z,12.88
2019-05-07T19:02:28.004Z,13.83
2019-05-07T19:04:59.680Z,11.93
2019-05-07T19:07:32.427Z,12.60
2019-05-07T19:10:05.155Z,15.00
2019-05-07T19:12:37.853Z,15.00
2019-05-07T19:15:12.412Z,17.12
2019-05-07T19:17:44.358Z,16.90
2019-05-07T19:20:16.012Z,16.70
2019-05-07T19:22:48.010Z,16.15
2019-05-07T19:25:19.866Z,17.05
2019-05-07T19:27:53.271Z,16.82
2019-05-07T19:30:25.369Z,18.62
2019-05-07T19:32:57.377Z,19.48
2019-05-07T19:35:29.020Z,19.50
2019-05-07T19:38:02.811Z,16.40
2019-05-07T19:40:35.649Z,22.37
2019-05-07T19:43:07.463Z,30.45
2019-05-07T19:48:12.432Z,37.33
2019-05-07T19:50:44.795Z,41.68
2019-05-07T19:53:16.675Z,44.08
2019-05-07T19:56:06.422Z,42.73
2019-05-07T19:58:37.890Z,47.05
2019-05-07T20:01:12.095Z,42.60
2019-05-07T20:03:43.853Z,33.60
2019-05-07T20:06:15.743Z,49.90
2019-05-07T20:08:47.254Z,67.30
2019-05-07T20:11:27.021Z,50.92
2019-05-07T20:13:58.684Z,44.48
2019-05-07T20:16:32.969Z,47.15
2019-05-07T20:19:03.911Z,41.80
2019-05-07T20:21:36.358Z,44.67
2019-05-07T20:24:08.266Z,41.28
2019-05-07T20:26:40.340Z,48.25
2019-05-07T20:29:12.412Z,43.48
2019-05-07T20:31:44.503Z,35.05
2019-05-07T20:34:15.971Z,28.80
2019-05-07T20:36:47.959Z,30.20
2019-05-07T20:39:19.439Z,27.93
2019-05-07T20:41:52.673Z,25.88
2019-05-07T20:44:25.263Z,25.32
2019-05-07T20:46:58.738Z,22.93
2019-05-07T20:49:32.038Z,22.62
2019-05-07T20:52:04.399Z,20.05
2019-05-07T20:54:49.834Z,20.92
2019-05-07T20:57:23.157Z,21.70
2019-05-07T20:59:56.237Z,20.90
2019-05-07T21:02:42.433Z,19.75
2019-05-07T21:05:02.973Z,19.70
2019-05-07T21:07:34.775Z,23.77
2019-05-07T21:10:07.208Z,22.27
2019-05-07T21:12:39.224Z,26.15
2019-05-07T21:17:43.663Z,24.00
2019-05-07T21:20:15.402Z,22.70
2019-05-07T21:22:48.008Z,22.93
2019-05-07T21:25:20.064Z,22.42
2019-05-07T21:27:53.125Z,22.73
2019-05-07T21:30:25.490Z,22.25
2019-05-07T21:35:28.377Z,21.50
2019-05-07T21:37:59.942Z,22.37
2019-05-07T21:40:32.145Z,20.97
2019-05-07T21:43:03.630Z,19.27
2019-05-07T21:45:35.829Z,19.45
2019-05-07T21:48:07.483Z,16.93
2019-05-07T21:50:39.523Z,17.55
2019-05-07T21:53:13.684Z,17.80
2019-05-07T21:56:01.726Z,17.23
2019-05-07T21:58:34.691Z,18.10
2019-05-07T22:01:08.202Z,18.48
2019-05-07T22:03:43.223Z,18.30
2019-05-07T22:06:15.206Z,17.50
2019-05-07T22:08:46.844Z,17.80
2019-05-07T22:11:18.573Z,18.52
2019-05-07T22:13:54.418Z,18.20
2019-05-07T22:16:23.892Z,19.42
2019-05-07T22:18:55.575Z,18.17
2019-05-07T22:21:29.231Z,18.90
2019-05-07T22:24:02.782Z,16.52
2019-05-07T22:26:34.372Z,17.23
2019-05-07T22:29:06.021Z,18.17
2019-05-07T22:31:48.641Z,16.82
2019-05-07T22:34:22.312Z,17.05
2019-05-07T22:36:55.641Z,16.23
2019-05-07T22:39:45.343Z,15.65
2019-05-07T22:42:32.698Z,16.90
2019-05-07T22:45:05.418Z,16.30
2019-05-07T22:47:38.950Z,16.97
2019-05-07T22:52:43.321Z,16.35
2019-05-07T22:55:15.311Z,17.00
2019-05-07T22:57:49.048Z,20.20
2019-05-07T23:00:22.675Z,18.75
2019-05-07T23:02:54.424Z,17.82
2019-05-07T23:05:26.375Z,18.48
2019-05-07T23:07:58.405Z,16.80
2019-05-07T23:10:30.298Z,20.12
2019-05-07T23:13:02.408Z,18.37
2019-05-07T23:15:34.528Z,19.42
2019-05-07T23:18:06.213Z,20.35
2019-05-07T23:20:38.741Z,22.82
2019-05-07T23:23:13.945Z,23.40
2019-05-07T23:25:43.908Z,24.37
2019-05-07T23:28:15.503Z,24.18
2019-05-07T23:30:47.618Z,25.70
2019-05-07T23:33:19.671Z,24.57
2019-05-07T23:35:52.766Z,29.67
2019-05-07T23:38:24.524Z,31.97
2019-05-07T23:41:03.592Z,33.37
2019-05-07T23:43:35.371Z,36.98
2019-05-07T23:46:07.488Z,36.83
2019-05-07T23:48:39.197Z,39.03
2019-05-07T23:51:12.623Z,38.83
2019-05-07T23:53:44.584Z,37.25
2019-05-07T23:56:16.663Z,37.28
2019-05-07T23:58:48.570Z,35.60
